Time;durP1;ratioP1;P1;durP2;ratioP2;P2;SDS_P1;SDS_P2;PMS_P1;PMS_P2;Temp;Humidity;BMP_temperature;BMP_pressure;BME280_temperature;BME280_humidity;BME280_pressure;Samples;Min_cycle;Max_cycle;Signal;HPM_P1;HPM_P2
2022/12/20 00:01:14;;;;;;;19.95;15.82;;;;;;;;;;5028732;28;20536;-61
2022/12/20 00:03:40;;;;;;;17.98;15.85;;;;;;;;;;5010218;28;20030;-60
2022/12/20 00:06:06;;;;;;;20.63;15.65;;;;;;;;;;5028995;28;20030;-62
2022/12/20 00:08:33;;;;;;;19.23;16.13;;;;;;;;;;5012496;28;20022;-61
2022/12/20 00:11:00;;;;;;;18.25;15.98;;;;;;;;;;5012290;28;20082;-61
2022/12/20 00:13:27;;;;;;;19.08;15.13;;;;;;;;;;5011687;28;20331;-63
2022/12/20 00:16:08;;;;;;;19.08;15.25;;;;;;;;;;5029830;28;20083;-62
2022/12/20 00:18:35;;;;;;;20.10;15.85;;;;;;;;;;5029740;28;20101;-62
2022/12/20 00:21:02;;;;;;;19.08;16.00;;;;;;;;;;5029817;28;20053;-61
2022/12/20 00:23:28;;;;;;;18.80;15.52;;;;;;;;;;5029074;28;20079;-61
2022/12/20 00:25:59;;;;;;;20.25;15.43;;;;;;;;;;5029607;28;20420;-59
2022/12/20 00:28:25;;;;;;;26.77;16.33;;;;;;;;;;5029754;28;20078;-60
2022/12/20 00:30:55;;;;;;;18.60;15.30;;;;;;;;;;5029652;28;20039;-61
2022/12/20 00:33:21;;;;;;;18.33;15.82;;;;;;;;;;5028962;28;20030;-59
2022/12/20 00:35:47;;;;;;;17.08;14.90;;;;;;;;;;5031248;28;20122;-60
2022/12/20 00:38:13;;;;;;;18.33;15.70;;;;;;;;;;5015526;28;20061;-61
2022/12/20 00:40:39;;;;;;;18.98;16.00;;;;;;;;;;5033263;28;20692;-60
2022/12/20 00:43:05;;;;;;;20.10;15.50;;;;;;;;;;5032591;28;20032;-60
2022/12/20 00:45:31;;;;;;;20.38;15.40;;;;;;;;;;5033214;28;20030;-59
2022/12/20 00:47:57;;;;;;;18.05;15.25;;;;;;;;;;5033381;28;20025;-60
2022/12/20 00:50:23;;;;;;;18.27;15.30;;;;;;;;;;5015172;28;20083;-62
2022/12/20 00:52:49;;;;;;;17.75;15.07;;;;;;;;;;5033109;28;20104;-62
2022/12/20 00:55:15;;;;;;;21.05;16.08;;;;;;;;;;5014565;28;20080;-61
2022/12/20 00:57:41;;;;;;;18.55;15.30;;;;;;;;;;5015361;28;20120;-60
2022/12/20 01:00:07;;;;;;;17.70;14.93;;;;;;;;;;5015142;28;20454;-62
2022/12/20 01:02:33;;;;;;;17.95;15.32;;;;;;;;;;5032895;28;20014;-59
2022/12/20 01:04:59;;;;;;;18.98;15.13;;;;;;;;;;5031837;28;20052;-59
2022/12/20 01:07:25;;;;;;;19.05;15.43;;;;;;;;;;5032808;28;20052;-62
2022/12/20 01:09:51;;;;;;;18.00;15.30;;;;;;;;;;5032690;28;20029;-60
2022/12/20 01:12:17;;;;;;;20.08;15.60;;;;;;;;;;5032679;28;20528;-60
2022/12/20 01:14:43;;;;;;;18.52;15.15;;;;;;;;;;5031872;28;20486;-60
2022/12/20 01:17:09;;;;;;;18.67;14.90;;;;;;;;;;5032657;28;20032;-60
2022/12/20 01:19:35;;;;;;;18.00;14.93;;;;;;;;;;5032458;28;20382;-60
2022/12/20 01:22:01;;;;;;;19.65;15.18;;;;;;;;;;5032714;28;20111;-62
2022/12/20 01:24:27;;;;;;;17.52;14.52;;;;;;;;;;5014003;28;20567;-59
2022/12/20 01:26:53;;;;;;;19.25;14.77;;;;;;;;;;5032652;28;20044;-55
2022/12/20 01:29:19;;;;;;;20.40;14.73;;;;;;;;;;5032559;28;20064;-56
2022/12/20 01:31:45;;;;;;;20.23;15.50;;;;;;;;;;5032502;28;20033;-59
2022/12/20 01:34:11;;;;;;;18.02;14.85;;;;;;;;;;5031935;28;20030;-57
2022/12/20 01:36:38;;;;;;;17.73;14.80;;;;;;;;;;5032502;28;20096;-56
2022/12/20 01:39:22;;;;;;;17.52;14.75;;;;;;;;;;5032272;28;20026;-56
2022/12/20 01:41:48;;;;;;;18.15;14.70;;;;;;;;;;5032271;28;20557;-59
2022/12/20 01:44:17;;;;;;;17.98;14.90;;;;;;;;;;5013489;28;20025;-60
2022/12/20 01:46:43;;;;;;;17.77;15.02;;;;;;;;;;5030791;28;20037;-58
2022/12/20 01:49:12;;;;;;;18.83;14.98;;;;;;;;;;5014258;28;20159;-61
2022/12/20 01:51:40;;;;;;;18.50;15.18;;;;;;;;;;5031917;28;20022;-61
2022/12/20 01:54:19;;;;;;;18.90;14.80;;;;;;;;;;5013185;28;20485;-62
2022/12/20 01:56:48;;;;;;;17.25;14.80;;;;;;;;;;5032017;28;20029;-60
2022/12/20 01:59:14;;;;;;;18.52;14.95;;;;;;;;;;5031646;28;20482;-61
2022/12/20 02:01:41;;;;;;;16.83;14.38;;;;;;;;;;5031434;28;20074;-62
2022/12/20 02:04:07;;;;;;;19.05;14.63;;;;;;;;;;5013125;28;20029;-62
2022/12/20 02:06:33;;;;;;;18.58;14.82;;;;;;;;;;5014005;28;20025;-60
2022/12/20 02:09:00;;;;;;;17.70;14.48;;;;;;;;;;5031700;28;20095;-61
2022/12/20 02:11:49;;;;;;;17.17;14.88;;;;;;;;;;5014009;28;20033;-61
2022/12/20 02:14:15;;;;;;;17.23;14.40;;;;;;;;;;5002931;28;20030;-63
2022/12/20 02:17:00;;;;;;;24.08;14.70;;;;;;;;;;5031547;28;20092;-62
2022/12/20 02:19:40;;;;;;;17.00;14.52;;;;;;;;;;5031689;28;20126;-62
2022/12/20 02:22:25;;;;;;;17.90;14.60;;;;;;;;;;5031671;28;20504;-61
2022/12/20 02:24:58;;;;;;;17.20;14.45;;;;;;;;;;5030790;28;20017;-61
2022/12/20 02:27:31;;;;;;;17.95;14.60;;;;;;;;;;5031914;28;20030;-60
2022/12/20 02:30:03;;;;;;;18.10;15.00;;;;;;;;;;5031665;28;20030;-62
2022/12/20 02:32:52;;;;;;;17.63;14.95;;;;;;;;;;5031406;28;20412;-61
2022/12/20 02:35:23;;;;;;;18.42;15.63;;;;;;;;;;5003017;28;20068;-63
2022/12/20 02:37:50;;;;;;;18.20;14.88;;;;;;;;;;5030880;28;20061;-62
2022/12/20 02:40:19;;;;;;;18.52;15.07;;;;;;;;;;5030824;28;20071;-62
2022/12/20 02:42:45;;;;;;;;;;;;;;;;;;5031464;28;20025;-62
2022/12/20 02:45:14;;;;;;;16.70;14.38;;;;;;;;;;5045077;23;20027;-63
2022/12/20 02:47:51;;;;;;;17.35;14.55;;;;;;;;;;5032265;28;20025;-62
2022/12/20 02:50:20;;;;;;;17.85;15.60;;;;;;;;;;5032484;28;20034;-62
2022/12/20 02:52:46;;;;;;;18.65;15.07;;;;;;;;;;5031004;28;20032;-62
2022/12/20 02:55:12;;;;;;;18.45;14.90;;;;;;;;;;5031552;28;20398;-63
2022/12/20 02:57:48;;;;;;;17.52;15.10;;;;;;;;;;5031930;28;20068;-63
2022/12/20 03:00:17;;;;;;;18.65;14.90;;;;;;;;;;5032149;28;20044;-60
2022/12/20 03:05:29;;;;;;;17.90;14.90;;;;;;;;;;5032424;28;20609;-63
2022/12/20 03:07:55;;;;;;;18.55;15.10;;;;;;;;;;5032118;28;20630;-63
2022/12/20 03:10:22;;;;;;;17.75;14.65;;;;;;;;;;5032068;28;20198;-62
2022/12/20 03:12:48;;;;;;;17.90;14.93;;;;;;;;;;5031879;28;20037;-62
2022/12/20 03:15:14;;;;;;;19.40;15.00;;;;;;;;;;5013467;28;20021;-62
2022/12/20 03:17:40;;;;;;;18.35;14.73;;;;;;;;;;5032007;28;20421;-62
2022/12/20 03:20:07;;;;;;;17.60;14.98;;;;;;;;;;5031831;28;20099;-62
2022/12/20 03:22:33;;;;;;;17.60;14.65;;;;;;;;;;5031815;28;20029;-62
2022/12/20 03:25:00;;;;;;;17.80;14.77;;;;;;;;;;5013339;28;20124;-63
2022/12/20 03:27:29;;;;;;;17.38;14.75;;;;;;;;;;5031830;28;20021;-59
2022/12/20 03:29:55;;;;;;;17.23;14.68;;;;;;;;;;5032163;28;20021;-62
2022/12/20 03:32:21;;;;;;;18.02;14.63;;;;;;;;;;5036750;28;20056;-62
2022/12/20 03:34:47;;;;;;;17.20;14.52;;;;;;;;;;5018730;28;20029;-62
2022/12/20 03:37:14;;;;;;;16.88;14.63;;;;;;;;;;5037536;28;20022;-63
2022/12/20 03:39:40;;;;;;;18.10;14.85;;;;;;;;;;5033254;28;20116;-63
2022/12/20 03:42:06;;;;;;;17.73;14.93;;;;;;;;;;5032062;28;20465;-63
2022/12/20 03:44:32;;;;;;;18.00;14.85;;;;;;;;;;5013550;28;20111;-62
2022/12/20 03:46:58;;;;;;;17.63;15.10;;;;;;;;;;5031462;28;20067;-62
2022/12/20 03:49:24;;;;;;;18.65;15.88;;;;;;;;;;5013933;28;20037;-62
2022/12/20 03:51:50;;;;;;;17.80;15.00;;;;;;;;;;5031410;28;20025;-62
2022/12/20 03:54:15;;;;;;;19.13;15.73;;;;;;;;;;5013115;28;20025;-62
2022/12/20 03:56:41;;;;;;;17.40;15.00;;;;;;;;;;5013981;28;20022;-61
2022/12/20 03:59:07;;;;;;;18.63;15.45;;;;;;;;;;5031287;28;20052;-62
2022/12/20 04:01:35;;;;;;;18.38;15.40;;;;;;;;;;5031583;28;20022;-62
2022/12/20 04:04:02;;;;;;;19.90;16.20;;;;;;;;;;5030831;28;20022;-62
2022/12/20 04:06:28;;;;;;;17.70;15.77;;;;;;;;;;5031381;28;20064;-63
2022/12/20 04:08:54;;;;;;;19.20;15.43;;;;;;;;;;5013686;28;20021;-61
2022/12/20 04:11:20;;;;;;;18.02;15.60;;;;;;;;;;5034135;28;20120;-62
2022/12/20 04:13:50;;;;;;;18.23;15.77;;;;;;;;;;5016777;28;20401;-61
2022/12/20 04:16:17;;;;;;;18.15;15.60;;;;;;;;;;5035148;28;20022;-63
2022/12/20 04:18:43;;;;;;;17.80;15.07;;;;;;;;;;5035144;28;20071;-62
2022/12/20 04:21:10;;;;;;;19.15;15.20;;;;;;;;;;5019027;28;20021;-62
2022/12/20 04:23:37;;;;;;;19.52;15.27;;;;;;;;;;5019346;28;20033;-62
2022/12/20 04:26:04;;;;;;;18.88;15.65;;;;;;;;;;5015759;28;20021;-59
2022/12/20 04:28:31;;;;;;;18.38;15.65;;;;;;;;;;5035207;28;20456;-62
2022/12/20 04:30:57;;;;;;;18.85;15.80;;;;;;;;;;5017164;28;20025;-61
2022/12/20 04:33:23;;;;;;;18.20;15.73;;;;;;;;;;5034185;28;20029;-62
2022/12/20 04:35:49;;;;;;;19.60;15.40;;;;;;;;;;5017034;28;20485;-63
2022/12/20 04:38:15;;;;;;;22.65;17.05;;;;;;;;;;5017010;28;20032;-61
2022/12/20 04:40:41;;;;;;;18.20;15.52;;;;;;;;;;5034641;28;20053;-61
2022/12/20 04:43:07;;;;;;;18.85;15.75;;;;;;;;;;5033937;28;20029;-62
2022/12/20 04:45:33;;;;;;;17.45;15.40;;;;;;;;;;5034408;28;20034;-62
2022/12/20 04:47:59;;;;;;;18.33;15.60;;;;;;;;;;5034559;28;20064;-62
2022/12/20 04:50:25;;;;;;;18.40;15.32;;;;;;;;;;5016770;28;20026;-62
2022/12/20 04:55:39;;;;;;;19.08;16.00;;;;;;;;;;5034885;28;20067;-62
2022/12/20 04:58:06;;;;;;;19.52;15.60;;;;;;;;;;5034312;28;20037;-64
2022/12/20 05:00:32;;;;;;;18.02;15.70;;;;;;;;;;5034345;28;20129;-62
2022/12/20 05:02:58;;;;;;;18.58;15.90;;;;;;;;;;5033867;28;20441;-62
2022/12/20 05:05:24;;;;;;;18.58;16.25;;;;;;;;;;5015727;28;20029;-63
2022/12/20 05:07:51;;;;;;;20.13;16.15;;;;;;;;;;5034208;28;20470;-62
2022/12/20 05:10:17;;;;;;;20.63;16.25;;;;;;;;;;5034154;28;20025;-62
2022/12/20 05:12:43;;;;;;;17.98;16.08;;;;;;;;;;5033962;28;20029;-62
2022/12/20 05:15:09;;;;;;;18.48;16.30;;;;;;;;;;5015472;28;20120;-63
2022/12/20 05:17:35;;;;;;;19.38;16.30;;;;;;;;;;5033803;28;20030;-63
2022/12/20 05:20:01;;;;;;;20.90;16.20;;;;;;;;;;5033661;28;20069;-62
2022/12/20 05:27:57;;;;;;;18.35;15.82;;;;;;;;;;5034087;28;20041;-63
2022/12/20 05:30:23;;;;;;;18.85;16.70;;;;;;;;;;5033695;28;20029;-61
2022/12/20 05:32:50;;;;;;;17.88;15.90;;;;;;;;;;5015792;28;20386;-63
2022/12/20 05:35:16;;;;;;;20.48;17.90;;;;;;;;;;5015167;28;20053;-63
2022/12/20 05:37:42;;;;;;;19.42;16.33;;;;;;;;;;5033423;28;20104;-63
2022/12/20 05:40:09;;;;;;;19.30;16.27;;;;;;;;;;5015942;28;20128;-63
2022/12/20 05:42:35;;;;;;;19.38;16.02;;;;;;;;;;5033575;28;20541;-63
2022/12/20 05:45:02;;;;;;;21.15;16.45;;;;;;;;;;5032451;28;20171;-60
2022/12/20 05:47:32;;;;;;;19.83;16.23;;;;;;;;;;5033450;28;20033;-63
2022/12/20 05:49:58;;;;;;;18.70;16.00;;;;;;;;;;5033201;28;20098;-62
2022/12/20 05:52:24;;;;;;;20.48;16.58;;;;;;;;;;5033191;28;20049;-63
2022/12/20 05:54:50;;;;;;;18.80;16.58;;;;;;;;;;5032505;28;20053;-61
2022/12/20 05:57:16;;;;;;;18.05;16.15;;;;;;;;;;5033099;28;20394;-63
2022/12/20 05:59:42;;;;;;;23.35;17.70;;;;;;;;;;5015326;28;20036;-61
2022/12/20 06:02:09;;;;;;;18.23;16.23;;;;;;;;;;5015346;28;20033;-62
2022/12/20 06:04:35;;;;;;;18.50;16.50;;;;;;;;;;5014266;28;20028;-61
2022/12/20 06:07:01;;;;;;;19.98;16.88;;;;;;;;;;5032720;28;20038;-63
2022/12/20 06:09:28;;;;;;;18.92;16.90;;;;;;;;;;5032719;28;20033;-63
2022/12/20 06:11:54;;;;;;;20.38;16.17;;;;;;;;;;5032791;28;20025;-61
2022/12/20 06:14:20;;;;;;;20.05;17.20;;;;;;;;;;5032317;28;20180;-62
2022/12/20 06:16:47;;;;;;;20.95;18.10;;;;;;;;;;5032659;28;20112;-62
2022/12/20 06:19:13;;;;;;;19.60;17.50;;;;;;;;;;5014949;28;20060;-62
2022/12/20 06:21:39;;;;;;;19.40;17.38;;;;;;;;;;5032940;28;20095;-62
2022/12/20 06:24:06;;;;;;;20.88;17.73;;;;;;;;;;5014243;28;20026;-63
2022/12/20 06:26:35;;;;;;;19.65;17.55;;;;;;;;;;5032293;28;20029;-62
2022/12/20 06:29:02;;;;;;;19.67;17.63;;;;;;;;;;5032261;28;20033;-61
2022/12/20 06:31:28;;;;;;;19.58;17.33;;;;;;;;;;5014504;28;20025;-62
2022/12/20 06:33:54;;;;;;;20.88;17.33;;;;;;;;;;5030761;28;20100;-63
2022/12/20 06:36:20;;;;;;;20.38;17.70;;;;;;;;;;5014693;28;20068;-62
2022/12/20 06:38:46;;;;;;;19.63;17.52;;;;;;;;;;5014108;28;20061;-61
2022/12/20 06:41:12;;;;;;;19.63;17.52;;;;;;;;;;5014257;28;20544;-63
2022/12/20 06:43:39;;;;;;;20.38;18.17;;;;;;;;;;5031469;28;20483;-62
2022/12/20 06:46:05;;;;;;;20.23;17.80;;;;;;;;;;5031628;28;20426;-63
2022/12/20 06:48:31;;;;;;;20.02;17.92;;;;;;;;;;5014112;28;20444;-63
2022/12/20 06:50:57;;;;;;;20.02;17.77;;;;;;;;;;5014037;28;20025;-63
2022/12/20 06:53:23;;;;;;;22.30;18.00;;;;;;;;;;5030728;28;20025;-63
2022/12/20 06:55:49;;;;;;;20.23;17.35;;;;;;;;;;5031389;28;20044;-63
2022/12/20 06:58:19;;;;;;;20.55;17.58;;;;;;;;;;5031488;28;20026;-57
2022/12/20 07:00:45;;;;;;;20.13;18.00;;;;;;;;;;5028985;28;20025;-63
2022/12/20 07:03:11;;;;;;;20.42;18.30;;;;;;;;;;5012936;28;20115;-62
2022/12/20 07:05:38;;;;;;;20.77;18.58;;;;;;;;;;5031575;28;20397;-63
2022/12/20 07:08:04;;;;;;;21.10;18.70;;;;;;;;;;5013842;28;20025;-63
2022/12/20 07:10:31;;;;;;;22.00;18.25;;;;;;;;;;5031044;28;20478;-64
2022/12/20 07:12:57;;;;;;;19.73;17.60;;;;;;;;;;5013564;28;20410;-61
2022/12/20 07:15:23;;;;;;;21.35;18.10;;;;;;;;;;5030743;28;20026;-63
2022/12/20 07:17:50;;;;;;;21.13;18.30;;;;;;;;;;5031074;28;20070;-64
2022/12/20 07:20:16;;;;;;;20.70;17.65;;;;;;;;;;5031511;28;20033;-63
2022/12/20 07:22:42;;;;;;;19.95;17.80;;;;;;;;;;5013411;28;20048;-63
2022/12/20 07:25:09;;;;;;;19.95;17.15;;;;;;;;;;5030909;28;20042;-61
2022/12/20 07:27:35;;;;;;;20.83;17.67;;;;;;;;;;5013599;28;20026;-63
2022/12/20 07:30:01;;;;;;;20.67;18.38;;;;;;;;;;5013374;28;20045;-63
2022/12/20 07:32:27;;;;;;;21.52;18.13;;;;;;;;;;5031218;28;20022;-62
2022/12/20 07:34:53;;;;;;;19.55;17.38;;;;;;;;;;5030402;28;20055;-63
2022/12/20 07:37:19;;;;;;;19.23;17.13;;;;;;;;;;5013661;28;20021;-62
2022/12/20 07:39:45;;;;;;;21.20;17.92;;;;;;;;;;5031469;28;20026;-63
2022/12/20 07:42:11;;;;;;;20.75;17.63;;;;;;;;;;5031498;28;20044;-62
2022/12/20 07:44:37;;;;;;;22.38;17.73;;;;;;;;;;5032117;28;20033;-62
2022/12/20 07:47:03;;;;;;;20.20;17.30;;;;;;;;;;5017742;28;20036;-63
2022/12/20 07:49:29;;;;;;;19.25;17.08;;;;;;;;;;5035001;28;20098;-63
2022/12/20 07:51:58;;;;;;;20.60;17.52;;;;;;;;;;5034905;28;20121;-62
2022/12/20 07:54:27;;;;;;;20.75;17.27;;;;;;;;;;5034409;28;20500;-64
2022/12/20 07:56:53;;;;;;;;;;;;;;;;;;5017966;28;20112;-63
2022/12/20 07:59:23;;;;;;;19.30;17.08;;;;;;;;;;5034917;28;19909;-63
2022/12/20 08:01:50;;;;;;;20.95;17.85;;;;;;;;;;5034894;28;20028;-63
2022/12/20 08:04:20;;;;;;;19.80;16.70;;;;;;;;;;5034264;28;20083;-67
2022/12/20 08:06:47;;;;;;;19.92;16.83;;;;;;;;;;5035142;28;20386;-66
2022/12/20 08:09:14;;;;;;;19.33;17.08;;;;;;;;;;5035065;28;20385;-66
2022/12/20 08:11:42;;;;;;;18.90;16.90;;;;;;;;;;5034955;28;20090;-66
2022/12/20 08:14:09;;;;;;;19.10;17.00;;;;;;;;;;5034352;28;20044;-65
2022/12/20 08:16:35;;;;;;;21.63;16.98;;;;;;;;;;5016782;28;20045;-65
2022/12/20 08:19:01;;;;;;;19.08;16.70;;;;;;;;;;5034707;28;20068;-65
2022/12/20 08:21:27;;;;;;;21.52;17.23;;;;;;;;;;5017243;28;20116;-66
2022/12/20 08:23:54;;;;;;;19.40;16.65;;;;;;;;;;5034479;28;20039;-66
2022/12/20 08:26:20;;;;;;;21.15;17.27;;;;;;;;;;5016762;28;20474;-66
2022/12/20 08:28:46;;;;;;;19.67;16.50;;;;;;;;;;5034828;28;20032;-64
2022/12/20 08:31:12;;;;;;;18.95;16.13;;;;;;;;;;5034433;28;20025;-64
2022/12/20 08:33:39;;;;;;;19.65;16.55;;;;;;;;;;5015947;28;20021;-65
2022/12/20 08:36:06;;;;;;;19.67;17.50;;;;;;;;;;5016693;28;20025;-63
2022/12/20 08:38:32;;;;;;;21.90;16.38;;;;;;;;;;5016733;28;20079;-64
2022/12/20 08:41:02;;;;;;;19.17;16.23;;;;;;;;;;5016522;28;20687;-64
2022/12/20 08:43:29;;;;;;;21.92;16.58;;;;;;;;;;5033325;28;20022;-63
2022/12/20 08:45:55;;;;;;;20.70;16.20;;;;;;;;;;5025507;22;20049;-65
2022/12/20 08:48:22;;;;;;;21.00;16.55;;;;;;;;;;5013460;28;20026;-63
2022/12/20 08:50:54;;;;;;;19.77;16.00;;;;;;;;;;5013300;28;20050;-66
2022/12/20 08:53:20;;;;;;;19.67;16.10;;;;;;;;;;5012973;28;20033;-64
2022/12/20 08:55:46;;;;;;;18.58;15.70;;;;;;;;;;5000144;28;20490;-64
2022/12/20 08:58:12;;;;;;;18.63;15.98;;;;;;;;;;5033028;28;20060;-65
2022/12/20 09:00:38;;;;;;;19.33;16.00;;;;;;;;;;5032905;28;20052;-66
2022/12/20 09:03:04;;;;;;;20.55;16.08;;;;;;;;;;5032675;28;20069;-64
2022/12/20 09:05:30;;;;;;;18.48;15.90;;;;;;;;;;5015103;28;20052;-62
2022/12/20 09:07:56;;;;;;;23.63;17.70;;;;;;;;;;5032285;28;20537;-60
2022/12/20 09:10:22;;;;;;;18.48;15.88;;;;;;;;;;5015087;28;20026;-60
2022/12/20 09:12:48;;;;;;;18.23;16.33;;;;;;;;;;5028009;28;20025;-58
2022/12/20 09:15:14;;;;;;;22.08;16.30;;;;;;;;;;5013178;28;20025;-62
2022/12/20 09:17:40;;;;;;;20.20;16.40;;;;;;;;;;5014934;28;20022;-62
2022/12/20 09:20:07;;;;;;;20.90;17.45;;;;;;;;;;5022025;28;20026;-59
2022/12/20 09:22:33;;;;;;;19.25;16.45;;;;;;;;;;5011411;28;20517;-60
2022/12/20 09:24:59;;;;;;;19.77;16.98;;;;;;;;;;5012520;28;20112;-62
2022/12/20 09:27:25;;;;;;;19.83;16.67;;;;;;;;;;5012868;28;20343;-62
2022/12/20 09:29:51;;;;;;;18.38;16.30;;;;;;;;;;5012570;28;20032;-57
2022/12/20 09:32:17;;;;;;;18.40;16.15;;;;;;;;;;5012619;28;20109;-62
2022/12/20 09:34:43;;;;;;;18.55;16.10;;;;;;;;;;5012032;28;20088;-60
2022/12/20 09:37:09;;;;;;;19.35;16.33;;;;;;;;;;5012764;28;20030;-61
2022/12/20 09:39:35;;;;;;;17.85;15.95;;;;;;;;;;5012683;28;20040;-60
2022/12/20 09:42:06;;;;;;;19.27;16.58;;;;;;;;;;5012711;28;20104;-60
2022/12/20 09:44:34;;;;;;;17.95;16.05;;;;;;;;;;5012242;28;20022;-59
2022/12/20 09:47:03;;;;;;;17.80;15.90;;;;;;;;;;5012164;28;20030;-61
2022/12/20 09:49:33;;;;;;;18.65;16.65;;;;;;;;;;5012461;28;20034;-61
2022/12/20 09:52:02;;;;;;;18.10;16.02;;;;;;;;;;5012677;28;20076;-59
2022/12/20 09:54:47;;;;;;;19.90;16.42;;;;;;;;;;5011565;28;20030;-61
2022/12/20 09:57:31;;;;;;;19.20;16.20;;;;;;;;;;5014345;28;20037;-60
2022/12/20 09:59:57;;;;;;;18.23;16.30;;;;;;;;;;5027278;28;20033;-60
2022/12/20 10:02:24;;;;;;;20.33;15.77;;;;;;;;;;5031434;28;20033;-60
2022/12/20 10:04:50;;;;;;;18.45;15.60;;;;;;;;;;5030853;28;20064;-60
2022/12/20 10:07:19;;;;;;;19.23;16.30;;;;;;;;;;5031072;28;20593;-60
2022/12/20 10:09:46;;;;;;;17.90;16.00;;;;;;;;;;5013155;28;20025;-58
2022/12/20 10:12:30;;;;;;;19.38;16.05;;;;;;;;;;5019202;28;20121;-59
2022/12/20 10:15:16;;;;;;;17.95;15.95;;;;;;;;;;5010895;28;20022;-60
2022/12/20 10:17:47;;;;;;;18.83;16.27;;;;;;;;;;5011795;28;20216;-60
2022/12/20 10:20:13;;;;;;;19.70;16.30;;;;;;;;;;5011673;28;20046;-59
2022/12/20 10:22:46;;;;;;;19.92;15.57;;;;;;;;;;5009710;28;20026;-61
2022/12/20 10:25:15;;;;;;;18.05;15.90;;;;;;;;;;5011268;28;20029;-60
2022/12/20 10:27:42;;;;;;;18.40;15.82;;;;;;;;;;4994478;28;20070;-61
2022/12/20 10:30:19;;;;;;;18.92;16.45;;;;;;;;;;5011667;28;20033;-59
2022/12/20 10:32:46;;;;;;;17.77;15.70;;;;;;;;;;5011611;28;20021;-60
2022/12/20 10:35:21;;;;;;;20.00;16.52;;;;;;;;;;5010654;28;20038;-61
2022/12/20 10:37:58;;;;;;;17.95;15.90;;;;;;;;;;5011665;28;20025;-60
2022/12/20 10:40:32;;;;;;;19.00;15.88;;;;;;;;;;5014490;28;20030;-61
2022/12/20 10:42:58;;;;;;;18.17;16.00;;;;;;;;;;5013629;28;20029;-61
2022/12/20 10:45:24;;;;;;;18.15;15.60;;;;;;;;;;5012960;28;20033;-61
2022/12/20 10:47:51;;;;;;;18.08;15.80;;;;;;;;;;5013203;28;20026;-61
2022/12/20 10:50:17;;;;;;;17.90;16.00;;;;;;;;;;5012370;28;20080;-61
2022/12/20 10:52:44;;;;;;;18.15;15.73;;;;;;;;;;5011454;28;20063;-61
2022/12/20 10:55:39;;;;;;;18.65;15.65;;;;;;;;;;5010860;28;20028;-62
2022/12/20 10:58:16;;;;;;;18.42;16.42;;;;;;;;;;4990343;28;20040;-62
2022/12/20 11:00:42;;;;;;;19.75;16.45;;;;;;;;;;5019385;28;20017;-60
2022/12/20 11:03:14;;;;;;;18.27;16.13;;;;;;;;;;5030191;28;20083;-61
2022/12/20 11:05:40;;;;;;;18.80;16.15;;;;;;;;;;5030008;28;20675;-62
2022/12/20 11:08:15;;;;;;;18.20;16.23;;;;;;;;;;5029443;28;20064;-62
2022/12/20 11:10:41;;;;;;;18.42;15.88;;;;;;;;;;5029034;28;20032;-62
2022/12/20 11:13:18;;;;;;;19.55;16.40;;;;;;;;;;5029310;28;20033;-62
2022/12/20 11:15:48;;;;;;;19.52;16.42;;;;;;;;;;5029955;28;20031;-61
2022/12/20 11:18:19;;;;;;;20.25;17.10;;;;;;;;;;5029734;28;20029;-61
2022/12/20 11:20:45;;;;;;;18.70;16.60;;;;;;;;;;5028023;28;20029;-63
2022/12/20 11:23:30;;;;;;;18.15;16.15;;;;;;;;;;5029603;28;20024;-62
2022/12/20 11:25:56;;;;;;;17.88;15.98;;;;;;;;;;5030438;28;20021;-61
2022/12/20 11:28:34;;;;;;;17.88;15.52;;;;;;;;;;5030474;28;20449;-62
2022/12/20 11:31:10;;;;;;;17.92;16.00;;;;;;;;;;5012512;28;20096;-62
2022/12/20 11:33:36;;;;;;;19.05;15.75;;;;;;;;;;5012158;28;20127;-61
2022/12/20 11:36:11;;;;;;;18.55;15.45;;;;;;;;;;5012321;28;20033;-60
2022/12/20 11:38:40;;;;;;;18.40;15.75;;;;;;;;;;5030038;28;20037;-62
2022/12/20 11:41:25;;;;;;;17.85;15.70;;;;;;;;;;5030377;28;20588;-62
2022/12/20 11:43:51;;;;;;;19.17;15.73;;;;;;;;;;5029845;28;20028;-61
2022/12/20 11:46:20;;;;;;;17.77;15.32;;;;;;;;;;5029554;28;20397;-62
2022/12/20 11:48:49;;;;;;;18.80;15.57;;;;;;;;;;5012463;28;20075;-61
2022/12/20 11:51:23;;;;;;;17.60;15.70;;;;;;;;;;5012478;28;20079;-61
2022/12/20 11:53:52;;;;;;;17.48;15.50;;;;;;;;;;5029532;28;20026;-62
2022/12/20 11:56:21;;;;;;;17.40;15.50;;;;;;;;;;5030429;28;20397;-61
2022/12/20 11:58:50;;;;;;;19.77;15.98;;;;;;;;;;5030067;28;20384;-61
2022/12/20 12:01:37;;;;;;;19.00;16.02;;;;;;;;;;5030080;28;20021;-62
2022/12/20 12:04:03;;;;;;;18.77;16.20;;;;;;;;;;5011806;28;20366;-62
2022/12/20 12:06:40;;;;;;;18.65;16.58;;;;;;;;;;5030326;28;20045;-61
2022/12/20 12:09:29;;;;;;;19.63;16.42;;;;;;;;;;5030441;28;20018;-60
2022/12/20 12:12:03;;;;;;;17.98;15.93;;;;;;;;;;5030363;28;20025;-62
2022/12/20 12:14:49;;;;;;;20.08;16.80;;;;;;;;;;5029158;28;20466;-62
2022/12/20 12:17:31;;;;;;;18.70;15.82;;;;;;;;;;5030229;28;20022;-61
2022/12/20 12:20:04;;;;;;;18.23;15.98;;;;;;;;;;5030071;28;20098;-60
2022/12/20 12:22:33;;;;;;;17.83;15.77;;;;;;;;;;5029236;28;20049;-59
2022/12/20 12:25:01;;;;;;;18.08;16.02;;;;;;;;;;5029242;28;20018;-62
2022/12/20 12:27:27;;;;;;;18.07;15.24;;;;;;;;;;4682096;28;10000577;-59
2022/12/20 12:29:55;;;;;;;20.10;16.25;;;;;;;;;;5021436;28;20053;-60
2022/12/20 12:32:39;;;;;;;18.10;15.63;;;;;;;;;;5017293;28;20021;-60
2022/12/20 12:35:12;;;;;;;19.58;16.20;;;;;;;;;;5029584;28;20107;-59
2022/12/20 12:37:48;;;;;;;18.33;15.98;;;;;;;;;;4999466;28;20057;-60
2022/12/20 12:40:32;;;;;;;19.58;15.77;;;;;;;;;;5010091;28;20041;-61
2022/12/20 12:43:08;;;;;;;18.80;15.88;;;;;;;;;;5010616;28;20036;-60
2022/12/20 12:45:37;;;;;;;17.70;15.80;;;;;;;;;;5018782;28;20037;-62
2022/12/20 12:48:18;;;;;;;19.13;16.15;;;;;;;;;;5030890;28;20475;-59
2022/12/20 12:50:46;;;;;;;18.20;15.80;;;;;;;;;;5030417;28;20040;-59
2022/12/20 12:53:14;;;;;;;20.08;16.02;;;;;;;;;;5029273;28;20385;-60
2022/12/20 12:55:40;;;;;;;17.65;15.52;;;;;;;;;;5030231;28;20033;-60
2022/12/20 12:58:30;;;;;;;19.00;16.13;;;;;;;;;;5030457;28;20030;-60
2022/12/20 13:01:08;;;;;;;18.77;16.25;;;;;;;;;;5020203;28;20393;-59
2022/12/20 13:03:37;;;;;;;21.73;16.27;;;;;;;;;;5025076;28;20408;-61
2022/12/20 13:06:36;;;;;;;18.65;16.15;;;;;;;;;;5029621;28;20080;-60
2022/12/20 13:09:02;;;;;;;18.67;16.23;;;;;;;;;;4986144;28;20050;-60
2022/12/20 13:11:28;;;;;;;19.25;16.52;;;;;;;;;;5029378;28;20037;-57
2022/12/20 13:14:13;;;;;;;19.40;16.48;;;;;;;;;;5028586;28;20521;-60
2022/12/20 13:16:40;;;;;;;19.58;17.42;;;;;;;;;;5010821;28;20018;-59
2022/12/20 13:19:14;;;;;;;19.42;17.40;;;;;;;;;;5030446;28;20021;-62
2022/12/20 13:21:42;;;;;;;20.38;17.23;;;;;;;;;;5029905;28;20423;-59
2022/12/20 13:24:27;;;;;;;19.23;17.23;;;;;;;;;;5031864;28;20033;-60
2022/12/20 13:26:53;;;;;;;19.27;17.10;;;;;;;;;;5032495;28;20466;-60
2022/12/20 13:29:24;;;;;;;21.42;17.65;;;;;;;;;;5032318;28;20033;-60
2022/12/20 13:31:50;;;;;;;18.77;16.77;;;;;;;;;;5032300;28;20092;-60
2022/12/20 13:34:36;;;;;;;19.42;17.27;;;;;;;;;;5031790;28;20167;-59
2022/12/20 13:37:02;;;;;;;19.27;17.17;;;;;;;;;;5032101;28;20029;-60
2022/12/20 13:39:32;;;;;;;18.88;16.88;;;;;;;;;;5032362;28;20048;-60
2022/12/20 13:42:16;;;;;;;19.45;17.15;;;;;;;;;;5032071;28;20018;-60
2022/12/20 13:44:44;;;;;;;19.85;17.75;;;;;;;;;;5031719;28;20108;-59
2022/12/20 13:47:22;;;;;;;19.48;17.30;;;;;;;;;;5014393;28;20070;-61
2022/12/20 13:49:48;;;;;;;21.35;17.40;;;;;;;;;;5032675;28;20073;-59
2022/12/20 13:52:34;;;;;;;19.08;16.55;;;;;;;;;;5031974;28;20037;-59
2022/12/20 13:55:06;;;;;;;19.55;16.90;;;;;;;;;;5031183;28;20339;-62
2022/12/20 13:57:43;;;;;;;19.40;17.30;;;;;;;;;;5014171;28;20045;-60
2022/12/20 14:00:17;;;;;;;18.85;16.70;;;;;;;;;;5032312;28;20113;-62
2022/12/20 14:02:43;;;;;;;22.17;17.88;;;;;;;;;;5033665;28;20025;-59
2022/12/20 14:05:26;;;;;;;21.23;17.08;;;;;;;;;;5013575;28;20397;-59
2022/12/20 14:07:58;;;;;;;19.40;16.42;;;;;;;;;;5032358;28;20010;-62
2022/12/20 14:10:25;;;;;;;20.90;16.75;;;;;;;;;;5031611;28;20030;-61
2022/12/20 14:12:51;;;;;;;18.27;16.05;;;;;;;;;;5032484;28;20033;-61
2022/12/20 14:15:26;;;;;;;21.17;16.52;;;;;;;;;;5013129;28;20023;-59
2022/12/20 14:17:52;;;;;;;20.85;16.45;;;;;;;;;;5032222;28;20084;-60
2022/12/20 14:20:22;;;;;;;18.88;16.75;;;;;;;;;;5031350;28;20036;-60
2022/12/20 14:22:50;;;;;;;20.80;16.50;;;;;;;;;;5030466;28;20119;-60
2022/12/20 14:25:20;;;;;;;20.30;17.10;;;;;;;;;;5030815;28;20073;-62
2022/12/20 14:27:47;;;;;;;19.40;16.75;;;;;;;;;;5031285;28;20021;-60
2022/12/20 14:30:26;;;;;;;20.85;16.90;;;;;;;;;;5031282;28;20052;-60
2022/12/20 14:32:54;;;;;;;19.48;17.30;;;;;;;;;;5031341;28;20036;-60
2022/12/20 14:35:21;;;;;;;20.02;17.80;;;;;;;;;;5013175;28;20030;-60
2022/12/20 14:38:03;;;;;;;20.15;17.80;;;;;;;;;;5031125;28;20033;-62
2022/12/20 14:40:29;;;;;;;20.42;18.33;;;;;;;;;;5029720;28;20485;-62